Aérodrome :
LOGIN :

S'inscrire | Disclaimer

   EN    FR    IT 

 










Légende :    VFR   VFR Marginal   IFR   IFR Intensif   IFR Très Intensif
Visi : 
Plafond : 
>= 8 km
>= 3000ft
5 à 8 km
1000 à 3000 ft
1500m à 5 km
500 à 1000 ft
800 à 1500m
200 à 500 ft
< 800m
< 200 ft
Symboles :   Orages  Brouillard  Fortes neiges  Fortes précipitations  Vent > 20 kt
SIGMETs :   Divers  Orages  Givrage  Turbulence  Onde Orograph.  Cendres Volcan.







- Altitude de l'aérodrome : 16 ft
- Code IATA : EAS


LESO - San Sebastian Fuenterrabia

DERNIER METAR :
  • 200130Z AUTO VRB01KT 9999 OVC035/// 18/15 Q1025

METARs EXPIRÉS :
  • 200100Z AUTO 00000KT 9999 OVC034/// 18/15 Q1025
  • 200030Z AUTO VRB01KT 9999 BKN035/// 18/15 Q1025
  • 200000Z AUTO VRB01KT 9999 OVC035/// 18/15 Q1026
  • 192330Z AUTO 19002KT 9999 BKN036/// 18/15 Q1026
  • 192300Z AUTO 18002KT 9999 BKN034/// 17/15 Q1026

TAF TAF LESO
Valide du 20 à 00h jusqu'au 21 à 00h UTC


192300Z 2000/2024 18003KT 9999 FEW026 TX23/2014Z TN15/2006Z
BECMG 2010/2012 02010KT
Pas de NOTAMs connus pour ce terrain.



MET'MAP, la Météo Aéronautique d'un coup d'oeil ! - Copyright ORBIFLY Décembre 2007 - Disclaimer

ORBIFLY MET'MAP TEAM :

Programmation & Développement : Alexandra Zaïnal
Conception & Développement : Baudouin d'Aumeries
Co-Programmation & Développement : Marc-Olivier Méhu
Soutien technique & logistique : Manuel Goepfert

Contact : metmap@orbifly.com




SOURCES & CREDITS :

   NOAA